sensor_id;sensor_type;location;lat;lon;timestamp;P1;durP1;ratioP1;P2;durP2;ratioP2
15655;SDS011;7928;43.614;1.456;2023-02-04T00:01:53;18.10;;;10.83;;
15655;SDS011;7928;43.614;1.456;2023-02-04T00:04:20;19.37;;;9.70;;
15655;SDS011;7928;43.614;1.456;2023-02-04T00:06:47;20.23;;;8.93;;
15655;SDS011;7928;43.614;1.456;2023-02-04T00:09:14;13.70;;;8.70;;
15655;SDS011;7928;43.614;1.456;2023-02-04T00:11:42;15.70;;;9.87;;
15655;SDS011;7928;43.614;1.456;2023-02-04T00:14:10;21.03;;;10.53;;
15655;SDS011;7928;43.614;1.456;2023-02-04T00:16:37;17.87;;;9.13;;
15655;SDS011;7928;43.614;1.456;2023-02-04T00:19:04;14.27;;;8.70;;
15655;SDS011;7928;43.614;1.456;2023-02-04T00:21:31;13.40;;;9.00;;
15655;SDS011;7928;43.614;1.456;2023-02-04T00:23:58;15.03;;;9.73;;
15655;SDS011;7928;43.614;1.456;2023-02-04T00:26:25;16.73;;;9.50;;
15655;SDS011;7928;43.614;1.456;2023-02-04T00:28:54;16.03;;;9.07;;
15655;SDS011;7928;43.614;1.456;2023-02-04T00:31:21;22.07;;;10.57;;
15655;SDS011;7928;43.614;1.456;2023-02-04T00:33:48;22.37;;;9.50;;
15655;SDS011;7928;43.614;1.456;2023-02-04T00:36:15;18.87;;;9.43;;
15655;SDS011;7928;43.614;1.456;2023-02-04T00:38:41;23.27;;;12.70;;
15655;SDS011;7928;43.614;1.456;2023-02-04T00:41:08;25.07;;;11.27;;
15655;SDS011;7928;43.614;1.456;2023-02-04T00:43:35;21.87;;;12.13;;
15655;SDS011;7928;43.614;1.456;2023-02-04T00:46:04;19.77;;;11.73;;
15655;SDS011;7928;43.614;1.456;2023-02-04T00:48:31;18.20;;;11.37;;
15655;SDS011;7928;43.614;1.456;2023-02-04T00:50:59;17.93;;;13.17;;
15655;SDS011;7928;43.614;1.456;2023-02-04T00:53:26;22.07;;;13.53;;
15655;SDS011;7928;43.614;1.456;2023-02-04T00:55:53;21.67;;;12.90;;
15655;SDS011;7928;43.614;1.456;2023-02-04T00:58:20;20.83;;;13.13;;
15655;SDS011;7928;43.614;1.456;2023-02-04T01:00:47;18.50;;;12.00;;
15655;SDS011;7928;43.614;1.456;2023-02-04T01:03:15;23.57;;;12.87;;
15655;SDS011;7928;43.614;1.456;2023-02-04T01:05:42;19.23;;;12.23;;
15655;SDS011;7928;43.614;1.456;2023-02-04T01:08:09;21.60;;;12.20;;
15655;SDS011;7928;43.614;1.456;2023-02-04T01:10:36;19.43;;;11.60;;
15655;SDS011;7928;43.614;1.456;2023-02-04T01:13:04;21.70;;;12.00;;
15655;SDS011;7928;43.614;1.456;2023-02-04T01:15:32;22.37;;;11.47;;
15655;SDS011;7928;43.614;1.456;2023-02-04T01:17:59;16.93;;;10.63;;
15655;SDS011;7928;43.614;1.456;2023-02-04T01:20:27;18.67;;;11.80;;
15655;SDS011;7928;43.614;1.456;2023-02-04T01:22:55;19.93;;;11.10;;
15655;SDS011;7928;43.614;1.456;2023-02-04T01:25:22;19.73;;;12.00;;
15655;SDS011;7928;43.614;1.456;2023-02-04T01:27:49;24.73;;;12.30;;
15655;SDS011;7928;43.614;1.456;2023-02-04T01:30:16;17.67;;;11.70;;
15655;SDS011;7928;43.614;1.456;2023-02-04T01:32:43;19.10;;;12.53;;
15655;SDS011;7928;43.614;1.456;2023-02-04T01:35:10;21.63;;;11.90;;
15655;SDS011;7928;43.614;1.456;2023-02-04T01:37:38;20.93;;;12.37;;
15655;SDS011;7928;43.614;1.456;2023-02-04T01:40:06;18.37;;;10.80;;
15655;SDS011;7928;43.614;1.456;2023-02-04T01:42:33;21.37;;;12.47;;
15655;SDS011;7928;43.614;1.456;2023-02-04T01:45:00;20.00;;;11.70;;
15655;SDS011;7928;43.614;1.456;2023-02-04T01:47:30;16.90;;;10.90;;
15655;SDS011;7928;43.614;1.456;2023-02-04T01:49:57;20.87;;;11.80;;
15655;SDS011;7928;43.614;1.456;2023-02-04T01:52:24;20.33;;;12.33;;
15655;SDS011;7928;43.614;1.456;2023-02-04T01:54:54;20.07;;;12.27;;
15655;SDS011;7928;43.614;1.456;2023-02-04T01:57:21;19.23;;;12.23;;
15655;SDS011;7928;43.614;1.456;2023-02-04T01:59:48;19.03;;;12.30;;
15655;SDS011;7928;43.614;1.456;2023-02-04T02:05:06;21.23;;;12.47;;
15655;SDS011;7928;43.614;1.456;2023-02-04T02:07:35;22.10;;;11.70;;
15655;SDS011;7928;43.614;1.456;2023-02-04T02:10:05;14.90;;;11.07;;
15655;SDS011;7928;43.614;1.456;2023-02-04T02:12:34;19.47;;;11.80;;
15655;SDS011;7928;43.614;1.456;2023-02-04T02:15:01;22.47;;;12.47;;
15655;SDS011;7928;43.614;1.456;2023-02-04T02:17:29;20.40;;;12.57;;
15655;SDS011;7928;43.614;1.456;2023-02-04T02:19:57;19.50;;;12.00;;
15655;SDS011;7928;43.614;1.456;2023-02-04T02:22:25;21.20;;;11.90;;
15655;SDS011;7928;43.614;1.456;2023-02-04T02:24:56;15.60;;;10.43;;
15655;SDS011;7928;43.614;1.456;2023-02-04T02:27:23;20.40;;;11.13;;
15655;SDS011;7928;43.614;1.456;2023-02-04T02:29:50;18.07;;;10.80;;
15655;SDS011;7928;43.614;1.456;2023-02-04T02:32:17;18.33;;;11.43;;
15655;SDS011;7928;43.614;1.456;2023-02-04T02:34:45;15.23;;;9.73;;
15655;SDS011;7928;43.614;1.456;2023-02-04T02:37:12;16.57;;;9.83;;
15655;SDS011;7928;43.614;1.456;2023-02-04T02:39:40;16.70;;;10.30;;
15655;SDS011;7928;43.614;1.456;2023-02-04T02:42:11;18.03;;;10.70;;
15655;SDS011;7928;43.614;1.456;2023-02-04T02:44:41;19.07;;;10.13;;
15655;SDS011;7928;43.614;1.456;2023-02-04T02:47:11;16.63;;;10.20;;
15655;SDS011;7928;43.614;1.456;2023-02-04T02:49:40;18.03;;;9.17;;
15655;SDS011;7928;43.614;1.456;2023-02-04T02:52:09;18.10;;;9.63;;
15655;SDS011;7928;43.614;1.456;2023-02-04T02:54:37;14.03;;;8.97;;
15655;SDS011;7928;43.614;1.456;2023-02-04T02:57:09;16.53;;;8.93;;
15655;SDS011;7928;43.614;1.456;2023-02-04T02:59:40;19.20;;;9.57;;
15655;SDS011;7928;43.614;1.456;2023-02-04T03:02:08;15.27;;;9.40;;
15655;SDS011;7928;43.614;1.456;2023-02-04T03:04:39;19.10;;;9.33;;
15655;SDS011;7928;43.614;1.456;2023-02-04T03:07:09;13.07;;;8.73;;
15655;SDS011;7928;43.614;1.456;2023-02-04T03:09:37;13.50;;;9.07;;
15655;SDS011;7928;43.614;1.456;2023-02-04T03:12:05;16.20;;;9.07;;
15655;SDS011;7928;43.614;1.456;2023-02-04T03:14:34;18.97;;;9.23;;
15655;SDS011;7928;43.614;1.456;2023-02-04T03:17:03;18.33;;;9.67;;
15655;SDS011;7928;43.614;1.456;2023-02-04T03:19:31;14.23;;;9.00;;
15655;SDS011;7928;43.614;1.456;2023-02-04T03:22:00;18.53;;;9.27;;
15655;SDS011;7928;43.614;1.456;2023-02-04T03:24:28;14.30;;;8.77;;
15655;SDS011;7928;43.614;1.456;2023-02-04T03:26:55;15.63;;;8.57;;
15655;SDS011;7928;43.614;1.456;2023-02-04T03:29:23;12.63;;;8.77;;
15655;SDS011;7928;43.614;1.456;2023-02-04T03:31:51;15.97;;;8.50;;
15655;SDS011;7928;43.614;1.456;2023-02-04T03:34:19;16.67;;;9.07;;
15655;SDS011;7928;43.614;1.456;2023-02-04T03:36:46;14.87;;;9.00;;
15655;SDS011;7928;43.614;1.456;2023-02-04T03:39:13;16.93;;;9.60;;
15655;SDS011;7928;43.614;1.456;2023-02-04T03:41:40;19.97;;;7.73;;
15655;SDS011;7928;43.614;1.456;2023-02-04T03:44:07;12.40;;;7.63;;
15655;SDS011;7928;43.614;1.456;2023-02-04T03:46:34;10.63;;;7.67;;
15655;SDS011;7928;43.614;1.456;2023-02-04T03:49:03;15.30;;;8.37;;
15655;SDS011;7928;43.614;1.456;2023-02-04T03:51:30;16.90;;;8.20;;
15655;SDS011;7928;43.614;1.456;2023-02-04T03:53:57;13.23;;;8.07;;
15655;SDS011;7928;43.614;1.456;2023-02-04T03:56:24;13.47;;;7.97;;
15655;SDS011;7928;43.614;1.456;2023-02-04T03:58:51;9.83;;;6.70;;
15655;SDS011;7928;43.614;1.456;2023-02-04T04:01:18;14.70;;;7.10;;
15655;SDS011;7928;43.614;1.456;2023-02-04T04:03:45;15.90;;;8.20;;
15655;SDS011;7928;43.614;1.456;2023-02-04T04:06:13;14.07;;;7.20;;
15655;SDS011;7928;43.614;1.456;2023-02-04T04:08:40;18.63;;;8.17;;
15655;SDS011;7928;43.614;1.456;2023-02-04T04:11:07;13.37;;;7.50;;
15655;SDS011;7928;43.614;1.456;2023-02-04T04:13:34;15.10;;;7.83;;
15655;SDS011;7928;43.614;1.456;2023-02-04T04:16:01;11.37;;;6.70;;
15655;SDS011;7928;43.614;1.456;2023-02-04T04:18:29;13.13;;;7.33;;
15655;SDS011;7928;43.614;1.456;2023-02-04T04:20:56;13.07;;;7.57;;
15655;SDS011;7928;43.614;1.456;2023-02-04T04:23:25;13.73;;;7.10;;
15655;SDS011;7928;43.614;1.456;2023-02-04T04:25:52;16.73;;;7.17;;
15655;SDS011;7928;43.614;1.456;2023-02-04T04:28:19;14.30;;;8.00;;
15655;SDS011;7928;43.614;1.456;2023-02-04T04:30:46;15.17;;;6.90;;
15655;SDS011;7928;43.614;1.456;2023-02-04T04:33:13;15.20;;;6.53;;
15655;SDS011;7928;43.614;1.456;2023-02-04T04:35:40;14.23;;;7.20;;
15655;SDS011;7928;43.614;1.456;2023-02-04T04:38:07;14.73;;;7.60;;
15655;SDS011;7928;43.614;1.456;2023-02-04T04:40:35;11.00;;;6.87;;
15655;SDS011;7928;43.614;1.456;2023-02-04T04:43:02;19.90;;;8.13;;
15655;SDS011;7928;43.614;1.456;2023-02-04T04:45:29;11.77;;;7.13;;
15655;SDS011;7928;43.614;1.456;2023-02-04T04:47:56;12.27;;;8.13;;
15655;SDS011;7928;43.614;1.456;2023-02-04T04:50:23;19.07;;;7.53;;
15655;SDS011;7928;43.614;1.456;2023-02-04T04:52:50;12.50;;;7.27;;
15655;SDS011;7928;43.614;1.456;2023-02-04T04:55:17;14.37;;;7.70;;
15655;SDS011;7928;43.614;1.456;2023-02-04T04:57:46;17.40;;;7.93;;
15655;SDS011;7928;43.614;1.456;2023-02-04T05:00:14;12.70;;;7.30;;
15655;SDS011;7928;43.614;1.456;2023-02-04T05:02:43;14.43;;;7.27;;
15655;SDS011;7928;43.614;1.456;2023-02-04T05:05:10;14.93;;;7.93;;
15655;SDS011;7928;43.614;1.456;2023-02-04T05:07:37;11.77;;;6.70;;
15655;SDS011;7928;43.614;1.456;2023-02-04T05:10:04;21.77;;;11.77;;
15655;SDS011;7928;43.614;1.456;2023-02-04T05:12:32;13.03;;;8.70;;
15655;SDS011;7928;43.614;1.456;2023-02-04T05:15:01;14.67;;;7.83;;
15655;SDS011;7928;43.614;1.456;2023-02-04T05:17:28;13.50;;;7.73;;
15655;SDS011;7928;43.614;1.456;2023-02-04T05:19:55;13.67;;;7.40;;
15655;SDS011;7928;43.614;1.456;2023-02-04T05:22:22;15.80;;;6.97;;
15655;SDS011;7928;43.614;1.456;2023-02-04T05:24:49;13.40;;;8.27;;
15655;SDS011;7928;43.614;1.456;2023-02-04T05:27:16;15.03;;;7.93;;
15655;SDS011;7928;43.614;1.456;2023-02-04T05:29:43;14.87;;;7.57;;
15655;SDS011;7928;43.614;1.456;2023-02-04T05:32:11;16.97;;;8.87;;
15655;SDS011;7928;43.614;1.456;2023-02-04T05:34:38;13.83;;;8.17;;
15655;SDS011;7928;43.614;1.456;2023-02-04T05:37:05;13.17;;;7.37;;
15655;SDS011;7928;43.614;1.456;2023-02-04T05:39:32;15.37;;;7.80;;
15655;SDS011;7928;43.614;1.456;2023-02-04T05:41:59;11.23;;;7.20;;
15655;SDS011;7928;43.614;1.456;2023-02-04T05:44:26;21.47;;;8.83;;
15655;SDS011;7928;43.614;1.456;2023-02-04T05:46:53;18.63;;;8.77;;
15655;SDS011;7928;43.614;1.456;2023-02-04T05:49:21;16.07;;;8.80;;
15655;SDS011;7928;43.614;1.456;2023-02-04T05:51:49;17.93;;;8.17;;
15655;SDS011;7928;43.614;1.456;2023-02-04T05:54:15;12.37;;;7.07;;
15655;SDS011;7928;43.614;1.456;2023-02-04T05:56:44;15.47;;;8.40;;
15655;SDS011;7928;43.614;1.456;2023-02-04T05:59:12;15.53;;;7.90;;
15655;SDS011;7928;43.614;1.456;2023-02-04T06:01:39;12.37;;;7.37;;
15655;SDS011;7928;43.614;1.456;2023-02-04T06:04:06;16.33;;;7.70;;
15655;SDS011;7928;43.614;1.456;2023-02-04T06:06:34;15.20;;;8.47;;
15655;SDS011;7928;43.614;1.456;2023-02-04T06:09:01;15.87;;;7.47;;
15655;SDS011;7928;43.614;1.456;2023-02-04T06:11:28;15.30;;;8.27;;
15655;SDS011;7928;43.614;1.456;2023-02-04T06:13:55;17.57;;;7.90;;
15655;SDS011;7928;43.614;1.456;2023-02-04T06:16:22;13.23;;;8.43;;
15655;SDS011;7928;43.614;1.456;2023-02-04T06:18:49;29.17;;;10.50;;
15655;SDS011;7928;43.614;1.456;2023-02-04T06:21:16;18.70;;;7.20;;
15655;SDS011;7928;43.614;1.456;2023-02-04T06:23:45;14.67;;;7.57;;
15655;SDS011;7928;43.614;1.456;2023-02-04T06:26:12;15.07;;;8.07;;
15655;SDS011;7928;43.614;1.456;2023-02-04T06:28:39;15.73;;;7.67;;
15655;SDS011;7928;43.614;1.456;2023-02-04T06:31:06;19.57;;;8.67;;
15655;SDS011;7928;43.614;1.456;2023-02-04T06:33:34;15.20;;;8.00;;
15655;SDS011;7928;43.614;1.456;2023-02-04T06:36:01;16.17;;;7.77;;
15655;SDS011;7928;43.614;1.456;2023-02-04T06:38:28;16.13;;;8.17;;
15655;SDS011;7928;43.614;1.456;2023-02-04T06:40:56;19.03;;;8.53;;
15655;SDS011;7928;43.614;1.456;2023-02-04T06:43:23;15.57;;;8.37;;
15655;SDS011;7928;43.614;1.456;2023-02-04T06:45:52;14.20;;;7.73;;
15655;SDS011;7928;43.614;1.456;2023-02-04T06:48:19;11.70;;;7.70;;
15655;SDS011;7928;43.614;1.456;2023-02-04T06:50:46;14.97;;;8.00;;
15655;SDS011;7928;43.614;1.456;2023-02-04T06:53:14;14.80;;;7.93;;
15655;SDS011;7928;43.614;1.456;2023-02-04T06:55:41;14.43;;;8.20;;
15655;SDS011;7928;43.614;1.456;2023-02-04T06:58:10;15.93;;;7.60;;
15655;SDS011;7928;43.614;1.456;2023-02-04T07:00:37;12.77;;;6.97;;
15655;SDS011;7928;43.614;1.456;2023-02-04T07:03:04;16.47;;;9.43;;
15655;SDS011;7928;43.614;1.456;2023-02-04T07:05:31;11.90;;;7.70;;
15655;SDS011;7928;43.614;1.456;2023-02-04T07:07:58;17.53;;;7.73;;
15655;SDS011;7928;43.614;1.456;2023-02-04T07:10:26;14.40;;;7.87;;
15655;SDS011;7928;43.614;1.456;2023-02-04T07:12:53;17.33;;;8.13;;
15655;SDS011;7928;43.614;1.456;2023-02-04T07:15:22;13.13;;;8.20;;
15655;SDS011;7928;43.614;1.456;2023-02-04T07:17:49;15.73;;;7.73;;
15655;SDS011;7928;43.614;1.456;2023-02-04T07:20:16;14.77;;;7.63;;
15655;SDS011;7928;43.614;1.456;2023-02-04T07:22:44;10.47;;;7.33;;
15655;SDS011;7928;43.614;1.456;2023-02-04T07:25:11;14.63;;;8.13;;
15655;SDS011;7928;43.614;1.456;2023-02-04T07:27:39;14.27;;;8.60;;
15655;SDS011;7928;43.614;1.456;2023-02-04T07:30:08;13.17;;;7.53;;
15655;SDS011;7928;43.614;1.456;2023-02-04T07:32:37;12.07;;;7.63;;
15655;SDS011;7928;43.614;1.456;2023-02-04T07:35:04;12.47;;;8.13;;
15655;SDS011;7928;43.614;1.456;2023-02-04T07:37:31;16.30;;;8.00;;
15655;SDS011;7928;43.614;1.456;2023-02-04T07:39:58;12.57;;;7.43;;
15655;SDS011;7928;43.614;1.456;2023-02-04T07:42:25;16.07;;;7.90;;
15655;SDS011;7928;43.614;1.456;2023-02-04T07:44:53;10.80;;;7.40;;
15655;SDS011;7928;43.614;1.456;2023-02-04T07:47:20;12.43;;;7.43;;
15655;SDS011;7928;43.614;1.456;2023-02-04T07:49:49;13.13;;;7.57;;
15655;SDS011;7928;43.614;1.456;2023-02-04T07:52:18;14.90;;;7.30;;
15655;SDS011;7928;43.614;1.456;2023-02-04T07:54:45;12.00;;;7.47;;
15655;SDS011;7928;43.614;1.456;2023-02-04T07:57:12;18.07;;;9.17;;
15655;SDS011;7928;43.614;1.456;2023-02-04T07:59:40;9.73;;;7.20;;
15655;SDS011;7928;43.614;1.456;2023-02-04T08:02:08;14.50;;;8.03;;
15655;SDS011;7928;43.614;1.456;2023-02-04T08:04:35;12.33;;;7.40;;
15655;SDS011;7928;43.614;1.456;2023-02-04T08:07:04;12.90;;;7.50;;
15655;SDS011;7928;43.614;1.456;2023-02-04T08:09:31;14.53;;;7.93;;
15655;SDS011;7928;43.614;1.456;2023-02-04T08:11:58;12.77;;;7.77;;
15655;SDS011;7928;43.614;1.456;2023-02-04T08:14:25;15.33;;;7.33;;
15655;SDS011;7928;43.614;1.456;2023-02-04T08:16:52;13.27;;;7.63;;
15655;SDS011;7928;43.614;1.456;2023-02-04T08:19:19;15.10;;;7.47;;
15655;SDS011;7928;43.614;1.456;2023-02-04T08:21:46;12.87;;;7.53;;
15655;SDS011;7928;43.614;1.456;2023-02-04T08:24:15;13.37;;;8.43;;
15655;SDS011;7928;43.614;1.456;2023-02-04T08:26:43;12.07;;;7.87;;
15655;SDS011;7928;43.614;1.456;2023-02-04T08:29:10;12.63;;;7.53;;
15655;SDS011;7928;43.614;1.456;2023-02-04T08:31:37;12.13;;;7.87;;
15655;SDS011;7928;43.614;1.456;2023-02-04T08:34:04;16.87;;;8.30;;
15655;SDS011;7928;43.614;1.456;2023-02-04T08:36:32;14.40;;;8.00;;
15655;SDS011;7928;43.614;1.456;2023-02-04T08:38:59;14.00;;;8.00;;
15655;SDS011;7928;43.614;1.456;2023-02-04T08:41:27;13.70;;;7.97;;
15655;SDS011;7928;43.614;1.456;2023-02-04T08:43:54;11.83;;;7.83;;
15655;SDS011;7928;43.614;1.456;2023-02-04T08:46:22;16.77;;;8.57;;
15655;SDS011;7928;43.614;1.456;2023-02-04T08:48:49;12.60;;;8.47;;
15655;SDS011;7928;43.614;1.456;2023-02-04T08:51:16;14.90;;;8.47;;
15655;SDS011;7928;43.614;1.456;2023-02-04T08:53:43;12.87;;;9.03;;
15655;SDS011;7928;43.614;1.456;2023-02-04T08:56:10;14.80;;;8.53;;
15655;SDS011;7928;43.614;1.456;2023-02-04T08:58:42;14.67;;;9.13;;
15655;SDS011;7928;43.614;1.456;2023-02-04T09:01:09;12.03;;;8.10;;
15655;SDS011;7928;43.614;1.456;2023-02-04T09:03:36;14.53;;;9.40;;
15655;SDS011;7928;43.614;1.456;2023-02-04T09:06:04;10.97;;;8.67;;
15655;SDS011;7928;43.614;1.456;2023-02-04T09:08:31;12.30;;;8.50;;
15655;SDS011;7928;43.614;1.456;2023-02-04T09:10:58;13.93;;;8.83;;
15655;SDS011;7928;43.614;1.456;2023-02-04T09:13:25;15.53;;;8.23;;
15655;SDS011;7928;43.614;1.456;2023-02-04T09:15:54;12.67;;;8.73;;
15655;SDS011;7928;43.614;1.456;2023-02-04T09:18:21;13.27;;;8.20;;
15655;SDS011;7928;43.614;1.456;2023-02-04T09:20:50;15.33;;;8.77;;
15655;SDS011;7928;43.614;1.456;2023-02-04T09:23:18;11.43;;;8.13;;
15655;SDS011;7928;43.614;1.456;2023-02-04T09:25:45;14.27;;;7.93;;
15655;SDS011;7928;43.614;1.456;2023-02-04T09:28:12;11.53;;;7.83;;
15655;SDS011;7928;43.614;1.456;2023-02-04T09:30:41;10.97;;;8.60;;
15655;SDS011;7928;43.614;1.456;2023-02-04T09:33:12;11.67;;;8.57;;
15655;SDS011;7928;43.614;1.456;2023-02-04T09:35:41;15.97;;;7.60;;
15655;SDS011;7928;43.614;1.456;2023-02-04T09:38:08;12.43;;;8.20;;
15655;SDS011;7928;43.614;1.456;2023-02-04T09:40:35;11.70;;;8.23;;
15655;SDS011;7928;43.614;1.456;2023-02-04T09:43:08;14.67;;;8.83;;
15655;SDS011;7928;43.614;1.456;2023-02-04T09:45:38;15.07;;;8.80;;
15655;SDS011;7928;43.614;1.456;2023-02-04T09:48:05;15.20;;;9.50;;
15655;SDS011;7928;43.614;1.456;2023-02-04T09:50:36;16.10;;;9.03;;
15655;SDS011;7928;43.614;1.456;2023-02-04T09:53:03;57.30;;;34.67;;
15655;SDS011;7928;43.614;1.456;2023-02-04T09:55:33;12.07;;;9.00;;
15655;SDS011;7928;43.614;1.456;2023-02-04T09:58:04;13.03;;;8.30;;
15655;SDS011;7928;43.614;1.456;2023-02-04T10:00:37;11.33;;;7.43;;
15655;SDS011;7928;43.614;1.456;2023-02-04T10:03:09;10.13;;;6.40;;
15655;SDS011;7928;43.614;1.456;2023-02-04T10:05:41;8.67;;;5.87;;
15655;SDS011;7928;43.614;1.456;2023-02-04T10:08:10;12.23;;;6.70;;
15655;SDS011;7928;43.614;1.456;2023-02-04T10:10:40;11.80;;;6.63;;
15655;SDS011;7928;43.614;1.456;2023-02-04T10:13:09;11.03;;;7.43;;
15655;SDS011;7928;43.614;1.456;2023-02-04T10:15:42;9.77;;;5.80;;
15655;SDS011;7928;43.614;1.456;2023-02-04T10:18:10;7.90;;;5.23;;
15655;SDS011;7928;43.614;1.456;2023-02-04T10:20:45;10.07;;;6.10;;
15655;SDS011;7928;43.614;1.456;2023-02-04T10:23:12;7.87;;;5.80;;
15655;SDS011;7928;43.614;1.456;2023-02-04T10:25:40;9.43;;;6.40;;
15655;SDS011;7928;43.614;1.456;2023-02-04T10:28:09;8.50;;;5.67;;
15655;SDS011;7928;43.614;1.456;2023-02-04T10:30:39;8.30;;;5.60;;
15655;SDS011;7928;43.614;1.456;2023-02-04T10:33:11;8.83;;;6.43;;
15655;SDS011;7928;43.614;1.456;2023-02-04T10:35:44;9.30;;;5.90;;
15655;SDS011;7928;43.614;1.456;2023-02-04T10:38:12;7.80;;;5.83;;
15655;SDS011;7928;43.614;1.456;2023-02-04T10:40:39;9.90;;;6.10;;
15655;SDS011;7928;43.614;1.456;2023-02-04T10:43:07;7.53;;;5.93;;
15655;SDS011;7928;43.614;1.456;2023-02-04T10:45:35;7.53;;;5.73;;
15655;SDS011;7928;43.614;1.456;2023-02-04T10:48:03;8.53;;;6.27;;
15655;SDS011;7928;43.614;1.456;2023-02-04T10:50:32;11.33;;;6.13;;
15655;SDS011;7928;43.614;1.456;2023-02-04T10:53:00;8.57;;;6.13;;
15655;SDS011;7928;43.614;1.456;2023-02-04T10:55:44;8.90;;;5.53;;
15655;SDS011;7928;43.614;1.456;2023-02-04T10:58:13;8.63;;;5.50;;
15655;SDS011;7928;43.614;1.456;2023-02-04T11:00:43;7.47;;;5.70;;
15655;SDS011;7928;43.614;1.456;2023-02-04T11:03:11;11.30;;;5.93;;
15655;SDS011;7928;43.614;1.456;2023-02-04T11:05:44;7.93;;;5.47;;
15655;SDS011;7928;43.614;1.456;2023-02-04T11:08:19;7.53;;;5.30;;
15655;SDS011;7928;43.614;1.456;2023-02-04T11:10:49;6.07;;;4.50;;
15655;SDS011;7928;43.614;1.456;2023-02-04T11:13:21;8.40;;;5.07;;
15655;SDS011;7928;43.614;1.456;2023-02-04T11:15:54;8.87;;;4.80;;
15655;SDS011;7928;43.614;1.456;2023-02-04T11:18:42;6.07;;;4.70;;
15655;SDS011;7928;43.614;1.456;2023-02-04T11:21:12;7.40;;;5.37;;
15655;SDS011;7928;43.614;1.456;2023-02-04T11:23:48;7.93;;;5.10;;
15655;SDS011;7928;43.614;1.456;2023-02-04T11:26:15;5.57;;;4.33;;
15655;SDS011;7928;43.614;1.456;2023-02-04T11:28:48;6.47;;;4.33;;
15655;SDS011;7928;43.614;1.456;2023-02-04T11:31:27;7.07;;;5.40;;
15655;SDS011;7928;43.614;1.456;2023-02-04T11:34:09;5.63;;;4.63;;
15655;SDS011;7928;43.614;1.456;2023-02-04T11:36:55;7.03;;;4.90;;
15655;SDS011;7928;43.614;1.456;2023-02-04T11:39:34;8.70;;;5.15;;
15655;SDS011;7928;43.614;1.456;2023-02-04T11:42:04;5.35;;;4.50;;
15655;SDS011;7928;43.614;1.456;2023-02-04T11:44:31;9.18;;;5.32;;
15655;SDS011;7928;43.614;1.456;2023-02-04T11:46:59;8.88;;;4.78;;
15655;SDS011;7928;43.614;1.456;2023-02-04T11:49:27;8.35;;;5.47;;
15655;SDS011;7928;43.614;1.456;2023-02-04T11:52:02;5.65;;;4.90;;
15655;SDS011;7928;43.614;1.456;2023-02-04T11:54:34;5.93;;;4.45;;
15655;SDS011;7928;43.614;1.456;2023-02-04T11:57:01;9.02;;;4.90;;
15655;SDS011;7928;43.614;1.456;2023-02-04T11:59:28;6.72;;;5.32;;
15655;SDS011;7928;43.614;1.456;2023-02-04T12:02:05;7.53;;;4.63;;
15655;SDS011;7928;43.614;1.456;2023-02-04T12:04:48;6.82;;;5.13;;
15655;SDS011;7928;43.614;1.456;2023-02-04T12:07:20;5.25;;;4.55;;
15655;SDS011;7928;43.614;1.456;2023-02-04T12:09:51;6.07;;;5.13;;
15655;SDS011;7928;43.614;1.456;2023-02-04T12:12:22;5.10;;;4.60;;
15655;SDS011;7928;43.614;1.456;2023-02-04T12:14:59;9.05;;;4.97;;
15655;SDS011;7928;43.614;1.456;2023-02-04T12:17:28;6.05;;;4.32;;
15655;SDS011;7928;43.614;1.456;2023-02-04T12:19:55;6.93;;;4.80;;
15655;SDS011;7928;43.614;1.456;2023-02-04T12:22:22;5.03;;;4.30;;
15655;SDS011;7928;43.614;1.456;2023-02-04T12:24:51;7.68;;;5.32;;
15655;SDS011;7928;43.614;1.456;2023-02-04T12:27:18;8.30;;;4.60;;
15655;SDS011;7928;43.614;1.456;2023-02-04T12:29:46;6.63;;;4.57;;
15655;SDS011;7928;43.614;1.456;2023-02-04T12:32:13;7.15;;;4.32;;
15655;SDS011;7928;43.614;1.456;2023-02-04T12:34:40;6.25;;;4.60;;
15655;SDS011;7928;43.614;1.456;2023-02-04T12:37:07;6.28;;;4.72;;
15655;SDS011;7928;43.614;1.456;2023-02-04T12:39:34;7.85;;;4.88;;
15655;SDS011;7928;43.614;1.456;2023-02-04T12:42:02;6.97;;;4.72;;
15655;SDS011;7928;43.614;1.456;2023-02-04T12:44:29;6.35;;;4.93;;
15655;SDS011;7928;43.614;1.456;2023-02-04T12:46:56;5.30;;;4.80;;
15655;SDS011;7928;43.614;1.456;2023-02-04T12:49:23;6.15;;;4.30;;
15655;SDS011;7928;43.614;1.456;2023-02-04T12:51:50;7.32;;;4.38;;
15655;SDS011;7928;43.614;1.456;2023-02-04T12:54:17;4.72;;;4.00;;
15655;SDS011;7928;43.614;1.456;2023-02-04T12:56:44;5.72;;;3.72;;
15655;SDS011;7928;43.614;1.456;2023-02-04T12:59:14;5.78;;;3.90;;
15655;SDS011;7928;43.614;1.456;2023-02-04T13:01:41;7.50;;;4.47;;
15655;SDS011;7928;43.614;1.456;2023-02-04T13:04:08;5.55;;;4.03;;
15655;SDS011;7928;43.614;1.456;2023-02-04T13:06:35;5.80;;;4.13;;
15655;SDS011;7928;43.614;1.456;2023-02-04T13:09:02;4.22;;;3.83;;
15655;SDS011;7928;43.614;1.456;2023-02-04T13:11:29;5.72;;;3.95;;
15655;SDS011;7928;43.614;1.456;2023-02-04T13:13:56;4.75;;;3.92;;
15655;SDS011;7928;43.614;1.456;2023-02-04T13:16:25;5.43;;;4.20;;
15655;SDS011;7928;43.614;1.456;2023-02-04T13:18:51;4.25;;;3.78;;
15655;SDS011;7928;43.614;1.456;2023-02-04T13:21:18;5.10;;;3.47;;
15655;SDS011;7928;43.614;1.456;2023-02-04T13:23:45;5.60;;;3.67;;
15655;SDS011;7928;43.614;1.456;2023-02-04T13:26:12;6.13;;;3.65;;
15655;SDS011;7928;43.614;1.456;2023-02-04T13:28:39;5.13;;;3.65;;
15655;SDS011;7928;43.614;1.456;2023-02-04T13:31:06;4.03;;;3.35;;
15655;SDS011;7928;43.614;1.456;2023-02-04T13:33:35;5.07;;;3.20;;
15655;SDS011;7928;43.614;1.456;2023-02-04T13:36:02;4.93;;;3.60;;
15655;SDS011;7928;43.614;1.456;2023-02-04T13:38:29;6.22;;;3.30;;
15655;SDS011;7928;43.614;1.456;2023-02-04T13:40:57;5.32;;;3.03;;
15655;SDS011;7928;43.614;1.456;2023-02-04T13:43:24;4.50;;;3.03;;
15655;SDS011;7928;43.614;1.456;2023-02-04T13:45:51;3.90;;;2.67;;
15655;SDS011;7928;43.614;1.456;2023-02-04T13:48:18;4.63;;;3.05;;
15655;SDS011;7928;43.614;1.456;2023-02-04T13:50:46;3.63;;;2.55;;
15655;SDS011;7928;43.614;1.456;2023-02-04T13:53:14;4.43;;;2.70;;
15655;SDS011;7928;43.614;1.456;2023-02-04T13:55:42;5.63;;;2.80;;
15655;SDS011;7928;43.614;1.456;2023-02-04T13:58:09;5.90;;;2.65;;
15655;SDS011;7928;43.614;1.456;2023-02-04T14:00:36;3.15;;;2.45;;
15655;SDS011;7928;43.614;1.456;2023-02-04T14:03:03;3.78;;;2.58;;
15655;SDS011;7928;43.614;1.456;2023-02-04T14:05:30;2.97;;;2.38;;
15655;SDS011;7928;43.614;1.456;2023-02-04T14:07:58;3.58;;;2.40;;
15655;SDS011;7928;43.614;1.456;2023-02-04T14:10:25;2.58;;;2.17;;
15655;SDS011;7928;43.614;1.456;2023-02-04T14:12:52;4.10;;;2.70;;
15655;SDS011;7928;43.614;1.456;2023-02-04T14:15:19;2.60;;;2.40;;
15655;SDS011;7928;43.614;1.456;2023-02-04T14:17:46;5.22;;;2.95;;
15655;SDS011;7928;43.614;1.456;2023-02-04T14:20:13;8.32;;;2.80;;
15655;SDS011;7928;43.614;1.456;2023-02-04T14:22:40;3.63;;;2.40;;
15655;SDS011;7928;43.614;1.456;2023-02-04T14:25:09;4.82;;;2.67;;
15655;SDS011;7928;43.614;1.456;2023-02-04T14:27:36;3.65;;;2.65;;
15655;SDS011;7928;43.614;1.456;2023-02-04T14:30:06;3.20;;;2.33;;
15655;SDS011;7928;43.614;1.456;2023-02-04T14:32:40;2.95;;;2.60;;
15655;SDS011;7928;43.614;1.456;2023-02-04T14:35:07;4.60;;;2.50;;
15655;SDS011;7928;43.614;1.456;2023-02-04T14:37:34;4.88;;;2.30;;
15655;SDS011;7928;43.614;1.456;2023-02-04T14:40:01;4.05;;;2.70;;
15655;SDS011;7928;43.614;1.456;2023-02-04T14:42:30;3.78;;;2.80;;
15655;SDS011;7928;43.614;1.456;2023-02-04T14:44:57;3.58;;;2.90;;
15655;SDS011;7928;43.614;1.456;2023-02-04T14:47:24;3.97;;;2.80;;
15655;SDS011;7928;43.614;1.456;2023-02-04T14:49:51;4.05;;;2.80;;
15655;SDS011;7928;43.614;1.456;2023-02-04T14:52:18;5.20;;;2.95;;
15655;SDS011;7928;43.614;1.456;2023-02-04T14:54:45;4.32;;;3.00;;
15655;SDS011;7928;43.614;1.456;2023-02-04T14:57:12;5.25;;;2.65;;
15655;SDS011;7928;43.614;1.456;2023-02-04T14:59:41;2.95;;;2.35;;